Weather reports worldwide

Advertisment
Dunstaffnage, United Kingdom (99006): temperature & dewpoint: 18.06.2017 04:00:00 - 24.06.2017 04:00:00 (BST)Dunstaffnage, United Kingdom (99006): temperature 5cm: 18.06.2017 04:00:00 - 24.06.2017 04:00:00 (BST)Dunstaffnage, United Kingdom (99006): temperature -20cm: 18.06.2017 04:00:00 - 24.06.2017 04:00:00 (BST)Dunstaffnage, United Kingdom (99006): wind speed & gusts: 18.06.2017 04:00:00 - 24.06.2017 04:00:00 (BST)Dunstaffnage, United Kingdom (99006): wind direction: 18.06.2017 04:00:00 - 24.06.2017 04:00:00 (BST)Dunstaffnage, United Kingdom (99006): visibility: 18.06.2017 04:00:00 - 24.06.2017 04:00:00 (BST)Dunstaffnage, United Kingdom (99006): precipitation: 18.06.2017 04:00:00 - 24.06.2017 04:00:00 (BST)
Date & Time tt [°C] td [°C] tt 5cm [°C] tt -20cm [°C] ff [km/h] ff [kn] fx [km/h] fx [kn] dd vv [km] rr [mm]
24.06.2017 04:00:00 - - - - - - - - - - 0,0
24.06.2017 03:00:00 11,1 8,7 - - 22 12 - - WSW - 0,0
24.06.2017 02:00:00 11,1 8,7 - - 18 10 - - SW - 0,0
24.06.2017 01:00:00 10,7 9,1 - - 28 15 - - WSW - 0,0
24.06.2017 00:00:00 11,7 7,8 - - 16 9 - - SW - 0,0
23.06.2017 23:00:00 11,7 7,9 - - 11 6 - - SW - 0,0
23.06.2017 22:00:00 11,7 7,9 - - 15 8 - - WSW 10 0,0
23.06.2017 21:00:00 12,2 8,5 - - 22 12 - - WSW - 0,0
23.06.2017 20:00:00 12,3 9,3 - - 21 11 - - WSW - 0,0
23.06.2017 19:00:00 12,8 8,7 - - 21 11 - - SW - 0,0
23.06.2017 18:00:00 13,0 9,1 - - 22 12 - - SW - 0,0
23.06.2017 17:00:00 13,7 8,3 - - 22 12 - - SW - 0,0
23.06.2017 16:00:00 13,6 9,6 - - 16 9 - - SW - 0,0
23.06.2017 15:00:00 13,5 9,7 - - 21 11 - - WSW - 0,2
23.06.2017 14:00:00 15,1 12,7 - - 21 11 - - SW - 0,0
23.06.2017 13:00:00 14,1 10,7 - - 22 12 - - SW - 0,0
23.06.2017 12:00:00 13,5 10,8 - - 21 11 - - WSW - 0,0
23.06.2017 11:00:00 13,7 11,1 - - 18 10 - - WSW - 0,0
23.06.2017 10:00:00 12,6 11,1 - 15,2 22 12 - - SW 1,7 0,0
23.06.2017 09:00:00 12,9 11,2 - - 16 9 - - SW - 0,0
23.06.2017 08:00:00 13,2 12,5 - - 18 10 46 25 SW - 0,2
23.06.2017 07:00:00 13,5 13,0 - - 26 14 - - SW - 0,4
23.06.2017 06:00:00 13,2 12,7 - - 21 11 - - SSW - 1,0
23.06.2017 05:00:00 12,9 12,1 - - 21 11 - - S - 0,6
23.06.2017 04:00:00 12,8 12,0 - - 21 11 - - S - 0,2
23.06.2017 03:00:00 12,7 11,8 - - 22 12 - - S - 0,4
23.06.2017 02:00:00 12,6 11,7 - - 16 9 - - SSE - 1,0
23.06.2017 01:00:00 12,4 11,5 - - 16 9 - - SSE - 0,8
23.06.2017 00:00:00 12,5 11,2 - - 15 8 - - SSE - 0,0
22.06.2017 23:00:00 12,3 11,3 - - 16 9 - - SSE - 0,6
22.06.2017 22:00:00 12,4 11,4 - - 13 7 - - SSE - 0,2
22.06.2017 21:00:00 12,1 11,1 - - 11 6 - - SSE - 0,8
22.06.2017 20:00:00 12,9 10,5 - - 13 7 - - SSW - 0,0
22.06.2017 19:00:00 12,3 10,9 - - 9 5 - - SSW - 0,0
22.06.2017 18:00:00 14,0 11,2 - - 11 6 - - SSW - 0,0
22.06.2017 17:00:00 14,0 10,5 - - 13 7 - - SSW - 0,0
22.06.2017 16:00:00 13,9 11,6 - - 18 10 - - SSW - 0,2
22.06.2017 15:00:00 13,1 11,7 - - 15 8 - - SSW - 0,0
22.06.2017 14:00:00 13,6 10,9 - - 16 9 - - SW - 0,0
22.06.2017 13:00:00 14,6 10,5 - - 11 6 - - SSW - 0,0
22.06.2017 12:00:00 14,5 10,7 - - 5 3 - - W - 0,0
22.06.2017 11:00:00 14,4 10,7 - - 4 2 - - W - 0,0
22.06.2017 10:00:00 13,1 11,5 - 15,5 15 8 - - W 1,2 0,0
22.06.2017 09:00:00 13,0 10,4 - - 16 9 - - W - 0,0
22.06.2017 08:00:00 12,3 9,8 - - 11 6 - - W - 0,0
22.06.2017 07:00:00 11,7 10,1 - - 11 6 - - W - 0,0
22.06.2017 06:00:00 12,0 11,3 - - 13 7 - - W - 0,0
22.06.2017 05:00:00 12,2 12,0 - - 13 7 - - W - 0,0
22.06.2017 04:00:00 12,6 12,4 - - 13 7 - - W - 0,0
22.06.2017 03:00:00 13,1 13,0 - - 11 6 - - SW - 0,0
22.06.2017 02:00:00 13,2 13,0 - - 8 4 - - SW - 0,0
22.06.2017 01:00:00 13,1 13,0 - - 9 5 - - SW - 0,0
22.06.2017 00:00:00 13,5 13,3 - - 11 6 - - SSW - 0,0
21.06.2017 23:00:00 13,6 13,3 - - 9 5 - - SSW - 0,2
21.06.2017 22:00:00 13,8 13,5 - - 11 6 - - SW - 0,0
21.06.2017 21:00:00 14,1 13,8 - - 13 7 - - WSW - 0,8
21.06.2017 20:00:00 14,4 14,0 - - 13 7 - - SW - 1,0
21.06.2017 19:00:00 16,2 15,7 - - 9 5 - - SW - 2,0
21.06.2017 18:00:00 16,6 15,6 - - 9 5 - - WSW - 2,4
21.06.2017 17:00:00 17,3 16,1 - - 8 4 - - S - 3,0
21.06.2017 16:00:00 18,5 15,8 - - 11 6 - - SE - 0,0
21.06.2017 15:00:00 18,9 15,8 - - 11 6 - - SSE - 0,0
21.06.2017 14:00:00 17,5 16,2 - - 5 3 - - WSW - 0,0
21.06.2017 13:00:00 19,0 15,7 - - 11 6 - - E - 0,0
21.06.2017 12:00:00 17,7 14,9 - - 5 3 - - SSE - 0,2
21.06.2017 11:00:00 18,4 14,4 - - 9 5 - - E - 0,0
21.06.2017 10:00:00 17,9 13,9 18,3 15,4 16 9 - - E 2,4 0,0
21.06.2017 09:00:00 17,4 13,5 - - 18 10 - - E - 0,0
21.06.2017 08:00:00 17,2 13,2 - - 18 10 - - E - 0,0
21.06.2017 07:00:00 16,4 12,9 - - 15 8 - - E - 0,0
21.06.2017 06:00:00 16,2 12,8 - - 24 13 - - E - 0,0
21.06.2017 05:00:00 16,2 12,5 - - 16 9 - - E - 0,0
21.06.2017 04:00:00 16,5 12,4 - - 16 9 - - E - 0,0
21.06.2017 03:00:00 16,6 12,1 - - 13 7 - - E - 0,0
21.06.2017 02:00:00 16,9 12,0 - - 16 9 - - E - 0,0
21.06.2017 01:00:00 16,9 12,0 - - 15 8 - - E - 0,0
21.06.2017 00:00:00 16,8 11,4 - - 15 8 - - E - 0,0
20.06.2017 23:00:00 14,3 11,8 - - 9 5 - - E - 0,0
20.06.2017 22:00:00 14,9 12,1 - - 2 1 - - SE - 0,0
20.06.2017 21:00:00 16,4 10,9 - - 2 1 - - SSW - 0,0
20.06.2017 20:00:00 20,5 11,2 - - 4 2 - - W - 0,0
20.06.2017 19:00:00 20,3 10,3 - - 8 4 - - W - 0,0
20.06.2017 18:00:00 19,8 10,3 - - 8 4 - - W - 0,0
20.06.2017 17:00:00 20,3 10,8 - - 9 5 - - W - 0,0
20.06.2017 16:00:00 19,5 9,6 - - 11 6 - - WSW - 0,0
20.06.2017 15:00:00 18,1 11,4 - - 11 6 - - W - 0,0
20.06.2017 14:00:00 17,0 10,2 - - 11 6 - - W - 0,0
20.06.2017 13:00:00 16,8 10,9 - - 9 5 - - W - 0,0
20.06.2017 12:00:00 15,8 9,5 - - 9 5 - - WNW - 0,0
20.06.2017 11:00:00 13,7 6,8 - - 9 5 - - NW - 0,0
20.06.2017 10:00:00 13,6 7,3 13,8 14,5 8 4 - - WNW - 0,0
20.06.2017 09:00:00 12,9 9,4 - - 4 2 - - NW - 0,0
20.06.2017 08:00:00 12,2 9,4 - - 4 2 - - NE - 0,0
20.06.2017 07:00:00 10,2 8,8 - - 0 0 - - N - 0,0
20.06.2017 06:00:00 7,2 6,9 - - 2 1 - - E - 0,0
20.06.2017 05:00:00 6,0 5,5 - - 2 1 - - SSW - 0,0
20.06.2017 04:00:00 6,7 5,6 - - 4 2 - - SW - 0,0
20.06.2017 03:00:00 9,7 7,2 - - 2 1 - - N - 0,0
20.06.2017 02:00:00 10,7 7,8 - - 15 8 - - WNW - 0,0
20.06.2017 01:00:00 10,6 7,8 - - 11 6 - - W - 0,0
20.06.2017 00:00:00 10,9 8,5 - - 13 7 - - W - 0,0
19.06.2017 23:00:00 11,5 8,2 - - 11 6 - - W - 0,0
19.06.2017 22:00:00 12,4 7,8 - - 15 8 - - W - 0,0
19.06.2017 21:00:00 13,7 8,1 - - 15 8 - - WNW - 0,0
19.06.2017 20:00:00 15,2 9,4 - - 15 8 - - W - 0,0
19.06.2017 19:00:00 15,5 10,6 - - 22 12 - - W - 0,0
19.06.2017 18:00:00 17,0 11,9 - - 18 10 - - W - 0,0
19.06.2017 17:00:00 16,4 11,4 - - 18 10 - - W - 0,0
19.06.2017 16:00:00 15,7 11,7 - - 15 8 - - W - 0,0
19.06.2017 15:00:00 16,0 11,9 - - 16 9 - - W - 0,0
19.06.2017 14:00:00 15,2 12,6 - - 15 8 - - W - 0,0
19.06.2017 13:00:00 16,9 13,5 - - 11 6 - - W - 0,0
19.06.2017 12:00:00 14,2 12,5 - - 9 5 - - WSW - 0,0
19.06.2017 11:00:00 14,0 12,9 - - 11 6 - - WSW - 0,0
19.06.2017 10:00:00 13,0 12,3 13,7 14,5 13 7 - - WSW 2,3 0,0
19.06.2017 09:00:00 12,8 12,6 - - 9 5 - - WSW - 0,0
19.06.2017 08:00:00 13,6 13,5 - - 8 4 - - SSW - 0,0
19.06.2017 07:00:00 12,7 12,6 - - 2 1 - - WNW - 0,0
19.06.2017 06:00:00 12,4 12,3 - - 4 2 - - WNW - 0,0
19.06.2017 05:00:00 12,3 12,2 - - 2 1 - - WNW - 0,0
19.06.2017 04:00:00 12,4 12,2 - - 2 1 - - WSW - 0,0
19.06.2017 03:00:00 12,3 12,0 - - 2 1 - - W - 0,0
19.06.2017 02:00:00 12,4 12,1 - - 0 0 - - N - 0,0
19.06.2017 01:00:00 12,4 12,2 - - 4 2 - - W - 0,0
19.06.2017 00:00:00 12,4 12,2 - - 2 1 - - W - 0,0
18.06.2017 23:00:00 12,4 12,1 - - 4 2 - - SW - 0,0
18.06.2017 22:00:00 12,4 12,1 - - 2 1 - - WNW - 0,0
18.06.2017 21:00:00 12,5 12,2 - - 2 1 - - W - 0,2
18.06.2017 20:00:00 12,4 12,0 - - 4 2 - - WNW - 0,4
18.06.2017 19:00:00 13,1 12,5 - - 4 2 - - WSW - 0,8
18.06.2017 18:00:00 13,5 12,9 - - 9 5 - - SW - 0,2
18.06.2017 17:00:00 13,2 12,6 - - 11 6 - - WSW - 0,6
18.06.2017 16:00:00 14,1 13,5 - - 11 6 - - WSW - 0,4
18.06.2017 15:00:00 14,3 13,7 - - 8 4 - - SW - 0,4
18.06.2017 14:00:00 13,8 12,9 - - 9 5 - - SSW - 0,0
18.06.2017 13:00:00 14,1 13,1 - - 11 6 - - WSW - 0,0
18.06.2017 12:00:00 13,7 12,8 - - 9 5 - - SW - 0,2
18.06.2017 11:00:00 13,5 13,1 - - 8 4 - - SW - 0,0
18.06.2017 10:00:00 13,1 12,7 14,1 14,2 13 7 - - SSW 3,1 0,0
18.06.2017 09:00:00 13,4 13,2 - - 13 7 - - SSW - 0,0
18.06.2017 08:00:00 13,4 13,1 - - 13 7 - - SSW - 0,0
18.06.2017 07:00:00 13,4 13,2 - - 13 7 - - SSW - 0,0
18.06.2017 06:00:00 13,1 12,9 - - 13 7 - - SW - 0,2
18.06.2017 05:00:00 13,3 13,1 - - 15 8 - - SW - 0,8
18.06.2017 04:00:00 13,6 13,3 - - 15 8 - - SW - 0,4

tt = temperature
td = dewpoint
tt 5cm = temperature 5cm
tt -20cm = temperature -20cm
ff = wind speed
fx = gusts
dd = wind direction
vv = visibility
rr = precipitation

Next stations